Time;durP1;ratioP1;P1;durP2;ratioP2;P2;SDS_P1;SDS_P2;PMS_P1;PMS_P2;Temp;Humidity;BMP_temperature;BMP_pressure;BME280_temperature;BME280_humidity;BME280_pressure;Samples;Min_cycle;Max_cycle;Signal;HPM_P1;HPM_P2
2022/09/01 00:01:20;;;;;;;9.48;7.43;;;17.60;99.90;;;;;;6157443;28;20055;-80
2022/09/01 00:04:27;;;;;;;11.77;7.13;;;17.60;99.90;;;;;;6153987;28;20130;-81
2022/09/01 00:07:30;;;;;;;9.18;6.75;;;17.60;99.90;;;;;;6154843;29;20055;-80
2022/09/01 00:10:32;;;;;;;11.15;6.78;;;17.50;99.90;;;;;;6154705;28;20047;-79
2022/09/01 00:13:33;;;;;;;8.80;6.20;;;17.50;99.90;;;;;;6154047;28;20053;-80
2022/09/01 00:16:36;;;;;;;8.90;5.88;;;17.60;99.90;;;;;;6154391;28;20050;-80
2022/09/01 00:19:39;;;;;;;7.38;5.95;;;17.50;99.90;;;;;;6153481;28;20055;-79
2022/09/01 00:22:41;;;;;;;13.30;7.05;;;17.50;99.90;;;;;;6153529;29;20051;-80
2022/09/01 00:25:43;;;;;;;10.15;5.90;;;17.60;99.90;;;;;;6153689;28;20533;-80
2022/09/01 00:28:45;;;;;;;11.20;6.85;;;17.50;99.90;;;;;;6153020;28;20047;-79
2022/09/01 00:31:47;;;;;;;9.85;6.00;;;17.50;99.90;;;;;;6157982;28;20051;-79
2022/09/01 00:34:50;;;;;;;16.35;6.20;;;17.50;99.90;;;;;;6161828;29;20066;-79
2022/09/01 00:37:51;;;;;;;7.75;5.65;;;17.40;99.90;;;;;;6153935;28;20523;-80
2022/09/01 00:40:54;;;;;;;13.63;5.70;;;17.40;99.90;;;;;;6153908;28;20058;-80
2022/09/01 00:43:58;;;;;;;7.35;5.97;;;17.30;99.90;;;;;;6154179;28;20055;-80
2022/09/01 00:46:59;;;;;;;11.30;5.13;;;17.30;99.90;;;;;;6155252;29;20051;-79
2022/09/01 00:50:05;;;;;;;7.60;4.63;;;17.20;99.90;;;;;;6154341;28;20047;-79
2022/09/01 00:53:08;;;;;;;7.97;4.95;;;17.20;99.90;;;;;;6154492;28;20047;-80
2022/09/01 00:56:10;;;;;;;5.05;3.85;;;17.20;99.90;;;;;;6176911;28;20125;-79
2022/09/01 00:59:12;;;;;;;9.85;4.53;;;17.20;99.90;;;;;;6178465;28;20066;-79
2022/09/01 01:10:36;;;;;;;6.55;4.13;;;17.20;99.90;;;;;;6164794;28;20424;-80
2022/09/01 01:13:49;;;;;;;10.10;4.75;;;17.20;99.90;;;;;;6168745;28;20050;-80
2022/09/01 01:16:53;;;;;;;7.55;4.72;;;17.20;99.90;;;;;;6153905;29;20051;-79
2022/09/01 01:23:25;;;;;;;7.28;4.22;;;17.20;99.90;;;;;;6154059;29;20051;-80
2022/09/01 01:26:28;;;;;;;5.43;4.38;;;17.10;99.90;;;;;;6152892;29;20569;-79
2022/09/01 01:29:32;;;;;;;13.02;4.95;;;17.10;99.90;;;;;;6153434;29;20058;-79
2022/09/01 01:32:34;;;;;;;6.50;5.28;;;17.00;99.90;;;;;;6152920;28;20047;-79
2022/09/01 01:35:37;;;;;;;8.43;4.25;;;17.10;99.90;;;;;;6153292;29;20082;-79
2022/09/01 01:38:41;;;;;;;10.05;5.35;;;17.10;99.90;;;;;;6153318;29;20669;-79
2022/09/01 01:41:47;;;;;;;6.25;4.68;;;17.10;99.90;;;;;;6153326;29;20117;-79
2022/09/01 01:44:49;;;;;;;9.75;5.10;;;17.00;99.90;;;;;;6152755;29;20138;-79
2022/09/01 01:47:53;;;;;;;12.45;4.57;;;17.00;99.90;;;;;;6152735;29;20052;-79
2022/09/01 01:50:56;;;;;;;8.48;4.72;;;17.00;99.90;;;;;;6153921;29;20046;-79
2022/09/01 01:54:04;;;;;;;9.07;5.50;;;17.00;99.90;;;;;;6153494;29;20066;-79
2022/09/01 01:57:07;;;;;;;11.90;4.80;;;17.00;99.90;;;;;;6153034;29;20528;-79
2022/09/01 02:00:11;;;;;;;6.47;4.82;;;17.10;99.90;;;;;;6152590;29;20776;-80
2022/09/01 02:03:16;;;;;;;6.22;4.70;;;17.00;99.90;;;;;;6153202;29;20059;-79
2022/09/01 02:06:23;;;;;;;7.43;5.55;;;17.10;99.90;;;;;;6152440;29;20498;-79
2022/09/01 02:09:24;;;;;;;6.20;4.97;;;17.10;99.90;;;;;;6152113;29;20079;-80
2022/09/01 02:12:28;;;;;;;15.40;4.78;;;17.10;99.90;;;;;;6152501;29;20053;-80
2022/09/01 02:15:31;;;;;;;7.57;4.53;;;17.10;99.90;;;;;;6152413;29;20051;-79
2022/09/01 02:18:36;;;;;;;9.45;4.80;;;17.00;99.90;;;;;;6152044;29;20129;-80
2022/09/01 02:21:43;;;;;;;12.27;5.20;;;17.10;99.90;;;;;;6152834;29;20497;-79
2022/09/01 02:24:47;;;;;;;6.00;4.65;;;17.00;99.90;;;;;;6152699;29;20043;-79
2022/09/01 02:27:52;;;;;;;7.50;4.60;;;17.00;99.90;;;;;;6151815;29;20552;-80
2022/09/01 02:30:56;;;;;;;8.20;5.43;;;16.90;99.90;;;;;;6153462;29;20062;-80
2022/09/01 02:33:58;;;;;;;10.68;5.97;;;16.90;99.90;;;;;;6152458;29;20047;-79
2022/09/01 02:36:59;;;;;;;6.60;5.57;;;16.80;99.90;;;;;;6152332;29;20047;-79
2022/09/01 02:40:01;;;;;;;7.88;5.40;;;16.70;99.90;;;;;;6152363;29;20520;-79
2022/09/01 02:43:04;;;;;;;8.05;5.53;;;16.70;99.90;;;;;;6153034;28;20159;-79
2022/09/01 02:46:06;;;;;;;6.05;5.45;;;16.70;99.90;;;;;;6152432;29;20043;-79
2022/09/01 02:49:14;;;;;;;10.32;5.88;;;16.70;99.90;;;;;;6152211;29;20052;-79
2022/09/01 02:52:16;;;;;;;8.70;5.20;;;16.70;99.90;;;;;;6152358;29;20044;-79
2022/09/01 02:55:20;;;;;;;5.50;4.85;;;16.70;99.90;;;;;;6153061;29;20058;-79
2022/09/01 02:58:23;;;;;;;11.25;5.55;;;16.60;99.90;;;;;;6151978;29;20054;-80
2022/09/01 03:01:28;;;;;;;7.35;4.78;;;16.70;99.90;;;;;;6152352;29;20047;-79
2022/09/01 03:04:33;;;;;;;7.75;5.55;;;16.60;99.90;;;;;;6152680;29;20061;-80
2022/09/01 03:07:35;;;;;;;7.65;5.25;;;16.50;99.90;;;;;;6152444;29;20182;-79
2022/09/01 03:10:40;;;;;;;9.57;6.35;;;16.50;99.90;;;;;;6153216;29;20055;-79
2022/09/01 03:13:43;;;;;;;6.68;5.35;;;16.40;99.90;;;;;;6152387;29;20131;-79
2022/09/01 03:16:45;;;;;;;6.90;5.65;;;16.40;99.90;;;;;;6153365;29;20043;-79
2022/09/01 03:19:49;;;;;;;12.88;6.00;;;16.40;99.90;;;;;;6152074;29;20055;-79
2022/09/01 03:22:51;;;;;;;10.40;6.28;;;16.30;99.90;;;;;;6152967;29;20193;-80
2022/09/01 03:25:53;;;;;;;6.03;5.07;;;16.30;99.90;;;;;;6152865;29;20047;-79
2022/09/01 03:28:57;;;;;;;12.63;6.63;;;16.30;99.90;;;;;;6152145;29;20047;-79
2022/09/01 03:32:00;;;;;;;7.90;6.13;;;16.20;99.90;;;;;;6152380;29;20102;-79
2022/09/01 03:35:01;;;;;;;8.18;5.95;;;16.20;99.90;;;;;;6151261;29;20441;-79
2022/09/01 03:38:03;;;;;;;10.13;6.03;;;16.20;99.90;;;;;;6151347;29;20047;-79
2022/09/01 03:41:05;;;;;;;15.38;6.43;;;16.20;99.90;;;;;;6151600;29;20424;-79
2022/09/01 03:44:10;;;;;;;8.25;5.70;;;16.10;99.90;;;;;;6151893;29;20047;-80
2022/09/01 03:47:14;;;;;;;8.52;6.25;;;16.10;99.90;;;;;;6152031;29;20058;-80
2022/09/01 03:50:20;;;;;;;7.47;6.10;;;16.00;99.90;;;;;;6152077;29;20047;-79
2022/09/01 03:53:26;;;;;;;11.00;6.45;;;16.00;99.90;;;;;;6152000;29;20058;-79
2022/09/01 03:56:29;;;;;;;8.23;6.35;;;16.00;99.90;;;;;;6159129;28;20047;-79
2022/09/01 03:59:33;;;;;;;9.15;7.20;;;16.00;99.90;;;;;;6159561;29;20498;-80
2022/09/01 04:02:34;;;;;;;10.48;6.43;;;16.10;99.90;;;;;;6156827;29;20059;-80
2022/09/01 04:05:37;;;;;;;12.13;7.70;;;16.10;99.90;;;;;;6157023;29;20057;-79
2022/09/01 04:08:39;;;;;;;10.05;7.05;;;16.10;99.90;;;;;;6156264;29;20051;-79
2022/09/01 04:11:44;;;;;;;11.60;7.80;;;16.10;99.90;;;;;;6157246;29;20059;-79
2022/09/01 04:14:47;;;;;;;14.40;7.88;;;16.20;99.90;;;;;;6157953;29;20055;-79
2022/09/01 04:18:07;;;;;;;19.55;9.82;;;16.20;99.90;;;;;;6156637;29;20043;-79
2022/09/01 04:21:09;;;;;;;12.32;8.52;;;16.20;99.90;;;;;;6157004;29;20043;-80
2022/09/01 04:24:14;;;;;;;11.20;8.45;;;16.00;99.90;;;;;;6156239;29;20421;-80
2022/09/01 04:27:17;;;;;;;17.70;10.40;;;15.90;99.90;;;;;;6157221;29;20056;-80
2022/09/01 04:30:24;;;;;;;15.48;9.75;;;16.00;99.90;;;;;;6156081;29;20055;-80
2022/09/01 04:33:35;;;;;;;24.52;12.00;;;16.00;99.90;;;;;;6156611;29;20549;-80
2022/09/01 04:36:40;;;;;;;15.68;9.20;;;16.00;99.90;;;;;;6155539;29;20059;-79
2022/09/01 04:39:47;;;;;;;14.68;10.13;;;16.10;99.90;;;;;;6155301;29;20043;-80
2022/09/01 04:42:49;;;;;;;16.80;10.32;;;16.10;99.90;;;;;;6156321;29;20055;-79
2022/09/01 04:45:55;;;;;;;14.30;9.52;;;16.20;99.90;;;;;;6155715;29;20429;-80
2022/09/01 04:48:57;;;;;;;18.00;10.02;;;16.20;99.90;;;;;;6155352;28;20050;-80
2022/09/01 04:51:59;;;;;;;13.95;9.25;;;16.20;99.90;;;;;;6162956;28;20046;-80
2022/09/01 04:55:02;;;;;;;11.43;8.32;;;16.20;99.90;;;;;;6156067;29;20063;-80
2022/09/01 04:58:04;;;;;;;13.55;9.02;;;16.30;99.90;;;;;;6154132;28;20047;-80
2022/09/01 05:01:16;;;;;;;15.20;8.55;;;16.30;99.90;;;;;;6166395;28;20050;-79
2022/09/01 05:04:21;;;;;;;13.35;9.32;;;16.40;99.90;;;;;;6163019;28;20054;-80
2022/09/01 05:07:23;;;;;;;13.85;8.98;;;16.40;99.90;;;;;;6178867;28;20075;-80
2022/09/01 05:10:28;;;;;;;12.88;8.35;;;16.40;99.90;;;;;;6179075;28;20046;-80
2022/09/01 05:13:31;;;;;;;11.30;8.25;;;16.40;99.90;;;;;;6179136;28;20525;-79
2022/09/01 05:16:39;;;;;;;11.15;8.73;;;16.50;99.90;;;;;;6179184;28;20138;-79
2022/09/01 05:19:42;;;;;;;;;;;16.50;99.90;;;;;;6179094;28;20051;-80
2022/09/01 05:22:44;;;;;;;14.23;8.45;;;16.50;99.90;;;;;;6179153;28;20261;-80
2022/09/01 05:25:48;;;;;;;15.85;9.80;;;16.60;99.90;;;;;;6178452;28;20190;-80
2022/09/01 05:28:53;;;;;;;16.05;9.63;;;16.60;99.90;;;;;;6178381;28;20552;-80
2022/09/01 05:31:57;;;;;;;12.38;8.95;;;16.60;99.90;;;;;;6178578;28;20051;-79
2022/09/01 05:35:00;;;;;;;11.80;8.00;;;16.70;99.90;;;;;;6179243;28;20047;-79
2022/09/01 05:38:02;;;;;;;11.02;8.65;;;16.70;99.90;;;;;;6177523;28;20531;-79
2022/09/01 05:41:07;;;;;;;14.45;9.20;;;16.80;99.90;;;;;;6178018;28;20077;-79
2022/09/01 05:44:10;;;;;;;12.43;9.18;;;16.90;99.90;;;;;;6177960;28;20632;-80
2022/09/01 05:47:15;;;;;;;13.43;10.10;;;17.00;99.90;;;;;;6178332;28;20493;-79
2022/09/01 05:50:18;;;;;;;13.98;9.40;;;17.20;99.90;;;;;;6177846;28;20497;-79
2022/09/01 05:53:24;;;;;;;14.80;9.75;;;17.40;99.90;;;;;;6177941;28;20055;-79
2022/09/01 05:56:27;;;;;;;13.30;9.20;;;17.60;99.90;;;;;;6178210;28;20201;-79
2022/09/01 05:59:30;;;;;;;13.60;9.55;;;17.80;99.90;;;;;;6179108;28;20057;-79
2022/09/01 06:02:33;;;;;;;15.07;10.70;;;17.90;99.90;;;;;;6178069;28;20441;-79
2022/09/01 06:05:35;;;;;;;13.98;9.82;;;18.00;99.90;;;;;;6177765;28;20057;-79
2022/09/01 06:08:39;;;;;;;16.42;9.00;;;18.00;99.90;;;;;;6177047;28;20051;-78
2022/09/01 06:11:41;;;;;;;13.93;9.20;;;18.10;99.90;;;;;;6177771;28;20051;-79
2022/09/01 06:14:43;;;;;;;12.60;8.77;;;18.20;99.90;;;;;;6177987;28;20062;-79
2022/09/01 06:17:46;;;;;;;11.23;8.65;;;18.30;99.90;;;;;;6177112;28;20046;-79
2022/09/01 06:20:48;;;;;;;12.73;8.68;;;18.50;99.90;;;;;;6176798;28;20516;-80
2022/09/01 06:23:52;;;;;;;9.45;7.53;;;18.60;99.90;;;;;;6177682;28;20051;-79
2022/09/01 06:26:54;;;;;;;10.73;8.00;;;18.70;99.90;;;;;;6177441;28;20057;-80
2022/09/01 06:29:56;;;;;;;19.15;8.43;;;18.80;99.90;;;;;;6177321;28;20058;-79
2022/09/01 06:33:00;;;;;;;13.70;7.95;;;19.10;99.90;;;;;;6177705;28;20053;-80
2022/09/01 06:36:04;;;;;;;9.48;7.00;;;19.30;99.90;;;;;;6177575;28;20038;-80
2022/09/01 06:39:06;;;;;;;11.45;7.05;;;19.50;99.90;;;;;;6177253;28;20046;-80
2022/09/01 06:42:08;;;;;;;10.95;6.45;;;19.70;99.90;;;;;;6176874;28;20050;-80
2022/09/01 06:45:11;;;;;;;9.25;6.18;;;19.90;99.90;;;;;;6176317;28;20042;-80
2022/09/01 06:48:14;;;;;;;7.45;6.07;;;20.20;99.90;;;;;;6176617;28;20079;-80
2022/09/01 06:51:19;;;;;;;7.70;5.78;;;20.50;99.90;;;;;;6177321;28;20051;-80
2022/09/01 06:54:21;;;;;;;8.25;6.05;;;21.10;99.90;;;;;;6176823;28;20057;-80
2022/09/01 06:57:25;;;;;;;9.98;5.97;;;22.20;99.90;;;;;;6177032;28;20046;-80
2022/09/01 07:00:27;;;;;;;11.43;6.22;;;23.40;97.60;;;;;;6175565;28;20058;-79
2022/09/01 07:03:31;;;;;;;11.55;7.03;;;24.60;93.90;;;;;;6145454;28;20055;-80
2022/09/01 07:06:34;;;;;;;8.27;6.20;;;25.30;90.70;;;;;;6159107;28;20054;-79
2022/09/01 07:09:35;;;;;;;8.50;4.97;;;26.00;88.00;;;;;;6177672;28;20050;-79
2022/09/01 07:12:38;;;;;;;8.48;5.28;;;26.70;85.40;;;;;;6174633;28;20053;-81
2022/09/01 07:15:40;;;;;;;7.90;5.32;;;27.80;79.60;;;;;;6177349;28;20067;-80
2022/09/01 07:18:44;;;;;;;7.18;4.68;;;28.70;74.30;;;;;;6181685;28;20055;-80
2022/09/01 07:21:45;;;;;;;7.50;5.38;;;29.10;72.40;;;;;;6201337;28;20099;-80
2022/09/01 07:24:47;;;;;;;9.13;5.53;;;29.60;68.80;;;;;;6188865;28;20138;-81
2022/09/01 07:27:49;;;;;;;8.35;4.38;;;29.60;67.40;;;;;;6179136;28;20110;-82
2022/09/01 07:30:52;;;;;;;7.93;5.07;;;29.30;66.60;;;;;;6180456;28;20270;-81
2022/09/01 07:33:59;;;;;;;7.13;5.30;;;28.80;66.60;;;;;;6177189;28;20043;-81
2022/09/01 07:37:01;;;;;;;6.70;3.58;;;28.30;67.60;;;;;;6180846;28;20050;-81
2022/09/01 07:40:05;;;;;;;5.18;3.90;;;27.70;70.10;;;;;;6174712;28;20061;-81
2022/09/01 07:43:08;;;;;;;8.05;4.97;;;27.50;70.20;;;;;;6175212;28;20050;-81
2022/09/01 07:46:10;;;;;;;8.32;3.53;;;27.30;70.70;;;;;;6172018;28;20046;-80
2022/09/01 07:49:14;;;;;;;6.53;3.90;;;27.20;72.10;;;;;;6172871;28;20073;-80
2022/09/01 07:52:16;;;;;;;5.18;4.00;;;26.90;72.30;;;;;;6179650;28;20574;-81
2022/09/01 07:55:18;;;;;;;5.07;3.95;;;26.90;73.00;;;;;;6181429;28;20055;-80
2022/09/01 07:58:22;;;;;;;7.68;4.30;;;26.70;72.30;;;;;;6179405;28;20062;-80
2022/09/01 08:01:27;;;;;;;10.05;4.25;;;26.90;73.00;;;;;;6179854;28;20417;-80
2022/09/01 08:04:30;;;;;;;5.38;4.25;;;27.30;70.10;;;;;;6179998;28;20053;-79
2022/09/01 08:07:33;;;;;;;5.90;4.13;;;27.10;70.70;;;;;;6165456;28;20055;-82
2022/09/01 08:10:38;;;;;;;6.72;3.85;;;27.20;70.90;;;;;;6156414;28;20047;-81
2022/09/01 08:13:39;;;;;;;7.97;4.57;;;27.50;70.20;;;;;;6161304;28;20518;-82
2022/09/01 08:16:41;;;;;;;6.72;3.80;;;27.50;69.30;;;;;;6158585;28;20047;-81
2022/09/01 08:19:45;;;;;;;4.93;3.70;;;27.30;70.70;;;;;;6157634;28;20055;-81
2022/09/01 08:22:47;;;;;;;6.68;3.80;;;27.20;70.70;;;;;;6157793;28;20138;-81
2022/09/01 08:25:49;;;;;;;5.53;4.05;;;26.70;71.80;;;;;;6156791;28;20065;-81
2022/09/01 08:28:52;;;;;;;7.00;3.95;;;26.10;73.10;;;;;;6156754;29;20044;-82
2022/09/01 08:31:54;;;;;;;5.85;3.83;;;25.60;74.40;;;;;;6157366;28;20054;-81
2022/09/01 08:34:57;;;;;;;3.97;2.90;;;25.30;76.40;;;;;;6164106;28;20198;-81
2022/09/01 08:37:59;;;;;;;6.97;3.40;;;25.30;78.00;;;;;;6164483;28;20059;-81
2022/09/01 08:41:02;;;;;;;5.13;3.30;;;25.30;77.20;;;;;;6155370;28;20132;-81
2022/09/01 08:44:16;;;;;;;7.57;3.42;;;25.00;77.90;;;;;;6159598;28;20043;-81
2022/09/01 08:47:19;;;;;;;5.82;3.97;;;24.70;79.10;;;;;;6156882;29;20051;-81
2022/09/01 08:50:23;;;;;;;7.28;3.63;;;24.40;79.40;;;;;;6169658;28;20051;-82
2022/09/01 08:53:28;;;;;;;7.38;4.40;;;24.10;80.30;;;;;;6178960;28;20542;-80
2022/09/01 08:56:31;;;;;;;4.65;3.65;;;24.10;81.30;;;;;;6157215;28;20493;-81
2022/09/01 08:59:33;;;;;;;4.97;3.50;;;24.30;82.20;;;;;;6154910;29;20059;-81
2022/09/01 09:02:48;;;;;;;7.85;4.00;;;24.70;81.70;;;;;;6154197;28;20057;-81
2022/09/01 09:06:05;;;;;;;5.95;4.10;;;24.90;80.60;;;;;;6163535;28;20052;-80
2022/09/01 09:09:09;;;;;;;5.22;4.05;;;24.90;80.70;;;;;;6161595;28;20039;-81
2022/09/01 09:12:39;;;;;;;5.03;3.15;;;25.00;79.50;;;;;;6178160;28;20039;-81
2022/09/01 09:15:47;;;;;;;5.25;2.75;;;24.90;79.70;;;;;;6148124;28;20571;-81
2022/09/01 09:18:53;;;;;;;6.18;4.25;;;25.00;79.70;;;;;;6161545;28;20047;-81
2022/09/01 09:22:01;;;;;;;4.43;3.40;;;25.00;78.90;;;;;;6177807;28;20053;-80
2022/09/01 09:25:09;;;;;;;3.83;2.63;;;25.20;78.80;;;;;;6177790;28;20057;-81
2022/09/01 09:28:11;;;;;;;4.05;2.78;;;25.10;78.40;;;;;;6179361;28;20082;-80
2022/09/01 09:31:26;;;;;;;3.88;2.60;;;25.00;77.10;;;;;;6176896;28;20058;-80
2022/09/01 09:34:33;;;;;;;3.35;2.65;;;25.10;78.20;;;;;;6176752;28;20042;-80
2022/09/01 09:37:36;;;;;;;7.13;2.47;;;26.30;74.50;;;;;;6162038;28;20130;-81
2022/09/01 09:40:38;;;;;;;4.43;2.70;;;27.00;71.90;;;;;;6162596;28;20047;-81
2022/09/01 09:43:45;;;;;;;4.13;2.47;;;27.80;68.70;;;;;;6155144;28;20465;-80
2022/09/01 09:46:47;;;;;;;5.40;3.13;;;28.90;66.40;;;;;;6152473;28;20053;-81
2022/09/01 09:50:01;;;;;;;4.85;2.40;;;29.40;62.30;;;;;;6151265;28;20099;-81
2022/09/01 09:53:18;;;;;;;3.30;2.50;;;28.70;63.10;;;;;;6151130;28;20051;-80
2022/09/01 09:56:23;;;;;;;2.88;2.15;;;28.00;63.80;;;;;;6152719;29;20057;-80
2022/09/01 09:59:29;;;;;;;3.05;1.77;;;27.60;64.60;;;;;;6152555;28;20098;-80
2022/09/01 10:02:34;;;;;;;3.03;1.60;;;26.80;66.40;;;;;;6152185;28;20062;-80
2022/09/01 10:05:41;;;;;;;1.92;1.30;;;26.70;66.70;;;;;;6153483;29;20047;-80
2022/09/01 10:08:46;;;;;;;3.30;1.90;;;26.80;66.90;;;;;;6153505;28;20432;-80
2022/09/01 10:11:52;;;;;;;2.08;1.50;;;26.70;66.40;;;;;;6160798;28;20062;-80
2022/09/01 10:14:58;;;;;;;2.65;1.88;;;26.80;65.80;;;;;;6152329;29;20051;-80
2022/09/01 10:18:05;;;;;;;3.95;2.13;;;26.80;65.50;;;;;;6152334;29;20505;-81
2022/09/01 10:21:11;;;;;;;3.22;1.50;;;27.10;64.60;;;;;;6151771;29;20055;-80
2022/09/01 10:24:20;;;;;;;2.15;1.27;;;27.00;63.30;;;;;;6152576;29;20061;-80
2022/09/01 10:27:24;;;;;;;2.80;2.03;;;26.90;64.60;;;;;;6151745;29;20090;-80
2022/09/01 10:30:27;;;;;;;6.32;1.30;;;27.30;63.00;;;;;;6152014;28;20053;-80
2022/09/01 10:33:28;;;;;;;1.52;1.10;;;27.10;60.70;;;;;;6151369;28;20527;-80
2022/09/01 10:36:31;;;;;;;3.35;1.23;;;26.70;61.60;;;;;;6153075;29;20055;-81
2022/09/01 10:39:54;;;;;;;2.08;1.35;;;26.60;62.10;;;;;;6151693;28;20049;-80
2022/09/01 10:42:59;;;;;;;2.97;1.23;;;26.30;62.60;;;;;;6161748;29;20055;-80
2022/09/01 10:46:01;;;;;;;4.25;1.83;;;26.40;63.90;;;;;;6181734;28;20078;-79
2022/09/01 10:49:18;;;;;;;3.42;1.88;;;26.50;64.10;;;;;;6156203;29;20058;-80
2022/09/01 10:52:55;;;;;;;3.50;1.55;;;26.20;64.20;;;;;;6153844;29;20061;-81
2022/09/01 10:56:05;;;;;;;3.63;2.03;;;25.70;66.00;;;;;;6153041;29;20405;-80
2022/09/01 10:59:09;;;;;;;1.70;1.25;;;25.50;67.20;;;;;;6152776;28;20043;-80
2022/09/01 11:02:14;;;;;;;2.45;1.65;;;25.50;66.50;;;;;;6152627;29;20047;-80
2022/09/01 11:05:18;;;;;;;2.53;1.80;;;25.70;66.60;;;;;;6153204;28;20141;-80
2022/09/01 11:08:24;;;;;;;2.90;1.80;;;26.20;65.70;;;;;;6157864;29;20051;-81
2022/09/01 11:11:33;;;;;;;2.22;1.35;;;26.50;63.60;;;;;;6165279;28;20058;-81
2022/09/01 11:14:48;;;;;;;4.30;1.85;;;26.80;63.10;;;;;;6159659;28;20038;-81
2022/09/01 11:17:58;;;;;;;4.75;1.98;;;27.00;62.00;;;;;;6178879;28;20436;-80
2022/09/01 11:21:15;;;;;;;1.85;1.70;;;27.20;62.30;;;;;;6172130;28;20106;-81
2022/09/01 11:24:52;;;;;;;2.10;1.65;;;27.30;61.70;;;;;;6180793;28;20061;-80
2022/09/01 11:28:26;;;;;;;6.80;1.77;;;27.90;60.90;;;;;;6059122;29;20185;-80
2022/09/01 11:31:38;;;;;;;3.00;2.35;;;28.50;58.30;;;;;;6070901;28;20054;-80
2022/09/01 11:34:44;;;;;;;2.80;1.70;;;28.90;56.70;;;;;;6179313;28;20047;-81
2022/09/01 11:37:48;;;;;;;5.00;1.85;;;29.20;56.70;;;;;;6180191;28;20047;-80
2022/09/01 11:40:56;;;;;;;2.60;1.83;;;28.80;57.00;;;;;;6169415;28;20051;-80
2022/09/01 11:44:01;;;;;;;5.40;2.92;;;28.20;58.20;;;;;;6170208;28;20512;-81
2022/09/01 11:47:07;;;;;;;2.33;1.67;;;27.60;60.10;;;;;;6165282;28;20035;-81
2022/09/01 11:50:19;;;;;;;5.03;2.10;;;27.50;60.70;;;;;;6179135;28;20047;-81
2022/09/01 11:53:23;;;;;;;4.72;2.35;;;27.50;60.20;;;;;;6179636;28;20058;-81
2022/09/01 11:56:27;;;;;;;3.80;1.60;;;27.90;58.70;;;;;;6179600;28;20058;-81
2022/09/01 11:59:36;;;;;;;2.10;1.48;;;28.30;57.20;;;;;;6178348;28;20526;-82
2022/09/01 12:02:45;;;;;;;3.65;1.42;;;28.50;55.30;;;;;;6178366;28;20049;-81
2022/09/01 12:05:53;;;;;;;3.25;1.92;;;28.30;56.40;;;;;;6224455;23;20058;-77
2022/09/01 12:08:57;;;;;;;2.03;1.58;;;28.50;56.30;;;;;;6224293;28;20133;-78
2022/09/01 12:11:59;;;;;;;3.22;1.70;;;28.60;54.30;;;;;;6224535;28;20049;-78
2022/09/01 12:15:05;;;;;;;1.90;1.58;;;28.50;54.40;;;;;;6224887;28;20101;-78
2022/09/01 12:18:14;;;;;;;2.72;1.45;;;28.40;53.90;;;;;;6223733;28;20129;-78
2022/09/01 12:21:21;;;;;;;2.40;1.60;;;28.00;55.60;;;;;;6224965;28;20125;-78
2022/09/01 12:24:24;;;;;;;2.65;1.52;;;27.80;54.90;;;;;;6225832;28;20060;-77
2022/09/01 12:27:26;;;;;;;2.88;1.52;;;27.80;55.60;;;;;;6224188;28;20058;-77
2022/09/01 12:30:34;;;;;;;3.47;1.50;;;28.00;54.80;;;;;;6223513;28;20042;-77
2022/09/01 12:33:36;;;;;;;6.03;1.92;;;28.00;54.80;;;;;;6224224;28;20076;-77
2022/09/01 12:36:37;;;;;;;2.47;1.83;;;28.10;54.80;;;;;;6223652;28;20060;-78
2022/09/01 12:39:41;;;;;;;2.38;1.55;;;28.50;54.20;;;;;;6223716;28;20053;-77
2022/09/01 12:42:50;;;;;;;3.33;1.40;;;28.90;52.70;;;;;;6216545;28;20064;-78
2022/09/01 12:45:54;;;;;;;2.45;1.55;;;28.90;52.90;;;;;;6227451;28;20052;-79
2022/09/01 12:49:16;;;;;;;2.90;1.70;;;28.50;54.60;;;;;;6225364;28;20046;-78
2022/09/01 12:52:24;;;;;;;3.03;1.30;;;28.30;53.50;;;;;;6226995;28;20052;-79
2022/09/01 12:55:28;;;;;;;2.83;1.50;;;28.30;53.90;;;;;;6226820;28;20049;-78
2022/09/01 12:58:30;;;;;;;2.35;1.30;;;28.70;52.80;;;;;;6227897;28;20045;-78
2022/09/01 13:01:39;;;;;;;1.65;1.23;;;29.20;51.90;;;;;;6227866;28;20062;-78
2022/09/01 13:04:41;;;;;;;1.75;1.10;;;29.60;51.40;;;;;;6228136;28;20050;-79
2022/09/01 13:07:43;;;;;;;3.60;1.35;;;29.90;49.90;;;;;;6226694;28;20049;-78
2022/09/01 13:10:47;;;;;;;2.13;1.52;;;30.30;49.30;;;;;;6227509;28;20049;-79
2022/09/01 13:13:49;;;;;;;1.88;1.40;;;30.40;49.50;;;;;;6223955;28;20518;-79
2022/09/01 13:16:52;;;;;;;3.58;1.40;;;30.80;49.70;;;;;;6227622;28;20056;-79
2022/09/01 13:19:54;;;;;;;2.95;1.48;;;31.10;48.40;;;;;;6227686;28;20076;-79
2022/09/01 13:22:55;;;;;;;2.72;1.88;;;30.90;47.90;;;;;;6226814;28;20060;-79
2022/09/01 13:25:58;;;;;;;1.20;1.00;;;30.50;48.60;;;;;;6226765;28;20050;-79
2022/09/01 13:29:00;;;;;;;4.60;1.52;;;30.50;48.70;;;;;;6225653;28;20491;-79
2022/09/01 13:32:03;;;;;;;4.15;1.60;;;30.60;48.00;;;;;;6227688;28;20410;-78
2022/09/01 13:35:05;;;;;;;3.40;1.48;;;30.40;48.60;;;;;;6227084;28;20048;-79
2022/09/01 13:38:07;;;;;;;1.92;1.17;;;30.50;49.10;;;;;;6226387;28;20056;-78
2022/09/01 13:41:10;;;;;;;2.15;1.10;;;30.60;48.20;;;;;;6226451;28;20095;-78
2022/09/01 13:44:12;;;;;;;2.05;0.98;;;30.30;48.50;;;;;;6228333;28;20061;-78
2022/09/01 13:47:15;;;;;;;2.25;1.35;;;30.30;49.00;;;;;;6226038;28;20057;-79
2022/09/01 13:50:19;;;;;;;3.50;1.30;;;30.40;49.30;;;;;;6225450;28;20053;-79
2022/09/01 13:53:21;;;;;;;2.88;1.20;;;30.60;48.30;;;;;;6222906;28;20328;-79
2022/09/01 13:56:23;;;;;;;2.63;1.40;;;30.50;47.90;;;;;;6221059;28;20054;-79
2022/09/01 13:59:24;;;;;;;2.05;1.10;;;30.40;48.20;;;;;;6215673;28;20069;-79
2022/09/01 14:02:28;;;;;;;3.38;1.00;;;30.30;47.20;;;;;;6227671;28;20066;-79
2022/09/01 14:05:33;;;;;;;2.10;1.13;;;30.10;47.80;;;;;;6226492;28;20112;-79
2022/09/01 14:08:35;;;;;;;1.48;0.80;;;30.10;48.10;;;;;;6227591;28;20053;-79
2022/09/01 14:11:37;;;;;;;2.10;1.02;;;30.50;48.70;;;;;;6226192;28;20046;-79
2022/09/01 14:14:39;;;;;;;1.40;1.10;;;30.60;47.60;;;;;;6225266;28;20053;-79
2022/09/01 14:17:42;;;;;;;2.53;0.98;;;30.30;47.80;;;;;;6225444;28;20054;-79
2022/09/01 14:20:47;;;;;;;2.42;1.13;;;30.00;48.10;;;;;;6225762;28;20050;-79
2022/09/01 14:23:48;;;;;;;3.10;1.58;;;29.80;48.10;;;;;;6226872;28;20050;-79
2022/09/01 14:26:50;;;;;;;2.47;1.17;;;29.80;48.70;;;;;;6225117;28;20054;-79
2022/09/01 14:29:52;;;;;;;1.70;1.10;;;29.90;47.90;;;;;;6225854;28;20057;-79
2022/09/01 14:32:57;;;;;;;0.90;0.73;;;30.00;48.10;;;;;;6225765;28;20519;-79
2022/09/01 14:35:59;;;;;;;2.35;1.05;;;30.20;47.60;;;;;;6226442;28;20132;-79
2022/09/01 14:39:00;;;;;;;1.45;1.20;;;30.20;47.60;;;;;;6224917;28;20049;-79
2022/09/01 14:42:02;;;;;;;1.63;0.80;;;30.10;47.50;;;;;;6225790;28;20052;-79
2022/09/01 14:45:04;;;;;;;2.33;0.80;;;30.10;47.40;;;;;;6225722;28;20100;-79
2022/09/01 14:48:08;;;;;;;1.15;0.93;;;30.00;47.20;;;;;;6225183;28;20068;-79
2022/09/01 14:51:17;;;;;;;0.90;0.60;;;29.70;48.40;;;;;;6223677;28;20045;-78
2022/09/01 14:54:19;;;;;;;1.02;0.88;;;29.60;47.90;;;;;;6222370;28;20446;-79
2022/09/01 14:57:22;;;;;;;1.73;1.00;;;29.60;48.20;;;;;;6214129;28;20046;-79
2022/09/01 15:00:25;;;;;;;2.85;0.75;;;29.60;48.60;;;;;;6222184;28;20504;-79
2022/09/01 15:03:28;;;;;;;1.60;0.88;;;29.50;48.20;;;;;;6222302;28;20052;-79
2022/09/01 15:06:30;;;;;;;1.33;0.60;;;29.40;48.70;;;;;;6215971;28;20052;-80
2022/09/01 15:09:32;;;;;;;1.23;0.90;;;29.50;48.50;;;;;;6224025;28;20048;-79
2022/09/01 15:12:34;;;;;;;1.40;0.90;;;29.70;48.20;;;;;;6225314;28;20523;-79
2022/09/01 15:15:37;;;;;;;5.25;0.90;;;29.70;47.60;;;;;;6225737;28;20176;-79
2022/09/01 15:18:40;;;;;;;1.17;1.00;;;29.50;48.80;;;;;;6226656;28;20046;-79
2022/09/01 15:21:45;;;;;;;3.10;1.10;;;29.50;48.80;;;;;;6225884;28;20050;-78
2022/09/01 15:24:46;;;;;;;2.60;1.38;;;29.40;48.80;;;;;;6226919;28;20496;-79
2022/09/01 15:27:48;;;;;;;1.33;0.90;;;29.30;48.70;;;;;;6225074;28;20046;-79
2022/09/01 15:30:51;;;;;;;1.58;0.75;;;29.30;48.50;;;;;;6225037;28;20046;-79
2022/09/01 15:33:55;;;;;;;1.55;0.90;;;29.50;48.00;;;;;;6216337;28;20601;-79
2022/09/01 15:36:57;;;;;;;2.63;1.10;;;29.30;48.70;;;;;;6225068;28;20075;-79
2022/09/01 15:39:59;;;;;;;2.00;1.05;;;29.20;48.80;;;;;;6224521;28;20057;-79
2022/09/01 15:43:00;;;;;;;1.30;0.93;;;28.90;49.60;;;;;;6223659;28;20552;-78
2022/09/01 15:46:04;;;;;;;4.75;1.40;;;28.40;50.50;;;;;;6221306;28;20052;-78
2022/09/01 15:49:09;;;;;;;1.50;0.93;;;27.90;50.90;;;;;;6221429;28;20057;-79
2022/09/01 15:52:11;;;;;;;5.18;1.42;;;27.70;51.80;;;;;;6224521;28;20049;-78
2022/09/01 15:55:13;;;;;;;1.10;0.98;;;27.60;52.10;;;;;;6227683;28;20049;-78
2022/09/01 15:58:16;;;;;;;2.78;1.33;;;27.30;52.60;;;;;;6228191;28;20079;-80
2022/09/01 16:01:20;;;;;;;3.78;1.27;;;27.20;53.10;;;;;;6228019;28;20049;-79
2022/09/01 16:04:23;;;;;;;2.28;0.98;;;27.00;53.50;;;;;;6228101;28;20061;-79
2022/09/01 16:07:24;;;;;;;4.78;1.27;;;26.90;54.40;;;;;;6226657;28;20046;-80
2022/09/01 16:10:27;;;;;;;2.00;1.38;;;26.80;54.10;;;;;;6227505;28;20046;-79